sensor_id;sensor_type;location;lat;lon;timestamp;temperature;humidity
13880;DHT22;7010;48.200;16.332;2023-02-28T00:01:37;1.30;99.90
13880;DHT22;7010;48.200;16.332;2023-02-28T00:04:06;1.40;99.90
13880;DHT22;7010;48.200;16.332;2023-02-28T00:06:36;1.30;99.90
13880;DHT22;7010;48.200;16.332;2023-02-28T00:09:04;1.30;99.90
13880;DHT22;7010;48.200;16.332;2023-02-28T00:11:32;1.30;99.90
13880;DHT22;7010;48.200;16.332;2023-02-28T00:14:02;1.30;99.90
13880;DHT22;7010;48.200;16.332;2023-02-28T00:16:31;1.30;99.90
13880;DHT22;7010;48.200;16.332;2023-02-28T00:18:59;1.30;99.90
13880;DHT22;7010;48.200;16.332;2023-02-28T00:21:27;1.30;99.90
13880;DHT22;7010;48.200;16.332;2023-02-28T00:23:56;1.30;99.90
13880;DHT22;7010;48.200;16.332;2023-02-28T00:26:24;1.30;99.90
13880;DHT22;7010;48.200;16.332;2023-02-28T00:28:52;1.30;99.90
13880;DHT22;7010;48.200;16.332;2023-02-28T00:31:22;1.30;99.90
13880;DHT22;7010;48.200;16.332;2023-02-28T00:33:50;1.20;99.90
13880;DHT22;7010;48.200;16.332;2023-02-28T00:36:19;1.20;99.90
13880;DHT22;7010;48.200;16.332;2023-02-28T00:38:47;1.20;99.90
13880;DHT22;7010;48.200;16.332;2023-02-28T00:41:15;1.30;99.90
13880;DHT22;7010;48.200;16.332;2023-02-28T00:43:44;1.20;99.90
13880;DHT22;7010;48.200;16.332;2023-02-28T00:46:13;1.20;99.90
13880;DHT22;7010;48.200;16.332;2023-02-28T00:48:42;1.20;99.90
13880;DHT22;7010;48.200;16.332;2023-02-28T00:51:11;1.20;99.90
13880;DHT22;7010;48.200;16.332;2023-02-28T00:53:39;1.20;99.90
13880;DHT22;7010;48.200;16.332;2023-02-28T00:56:07;1.20;99.90
13880;DHT22;7010;48.200;16.332;2023-02-28T00:58:36;1.10;99.90
13880;DHT22;7010;48.200;16.332;2023-02-28T01:01:04;1.10;99.90
13880;DHT22;7010;48.200;16.332;2023-02-28T01:03:32;1.10;99.90
13880;DHT22;7010;48.200;16.332;2023-02-28T01:06:02;1.10;99.90
13880;DHT22;7010;48.200;16.332;2023-02-28T01:08:31;1.10;99.90
13880;DHT22;7010;48.200;16.332;2023-02-28T01:11:07;1.10;99.90
13880;DHT22;7010;48.200;16.332;2023-02-28T01:13:36;1.10;99.90
13880;DHT22;7010;48.200;16.332;2023-02-28T01:16:05;1.10;99.90
13880;DHT22;7010;48.200;16.332;2023-02-28T01:18:34;1.10;99.90
13880;DHT22;7010;48.200;16.332;2023-02-28T01:21:05;1.10;99.90
13880;DHT22;7010;48.200;16.332;2023-02-28T01:23:33;1.10;99.90
13880;DHT22;7010;48.200;16.332;2023-02-28T01:26:04;1.10;99.90
13880;DHT22;7010;48.200;16.332;2023-02-28T01:28:33;1.10;99.90
13880;DHT22;7010;48.200;16.332;2023-02-28T01:31:01;1.10;99.90
13880;DHT22;7010;48.200;16.332;2023-02-28T01:33:30;1.10;99.90
13880;DHT22;7010;48.200;16.332;2023-02-28T01:35:59;1.10;99.90
13880;DHT22;7010;48.200;16.332;2023-02-28T01:38:29;1.10;99.90
13880;DHT22;7010;48.200;16.332;2023-02-28T01:40:57;1.10;99.90
13880;DHT22;7010;48.200;16.332;2023-02-28T01:43:27;1.10;99.90
13880;DHT22;7010;48.200;16.332;2023-02-28T01:45:57;1.10;99.90
13880;DHT22;7010;48.200;16.332;2023-02-28T01:48:29;1.10;99.90
13880;DHT22;7010;48.200;16.332;2023-02-28T01:51:01;1.20;99.90
13880;DHT22;7010;48.200;16.332;2023-02-28T01:53:36;1.10;99.90
13880;DHT22;7010;48.200;16.332;2023-02-28T01:56:07;1.10;99.90
13880;DHT22;7010;48.200;16.332;2023-02-28T01:58:40;1.20;99.90
13880;DHT22;7010;48.200;16.332;2023-02-28T02:01:08;1.20;99.90
13880;DHT22;7010;48.200;16.332;2023-02-28T02:03:48;1.10;99.90
13880;DHT22;7010;48.200;16.332;2023-02-28T02:06:22;1.10;99.90
13880;DHT22;7010;48.200;16.332;2023-02-28T02:08:52;1.20;99.90
13880;DHT22;7010;48.200;16.332;2023-02-28T02:11:22;1.20;99.90
13880;DHT22;7010;48.200;16.332;2023-02-28T02:14:09;1.20;99.90
13880;DHT22;7010;48.200;16.332;2023-02-28T02:16:50;1.20;99.90
13880;DHT22;7010;48.200;16.332;2023-02-28T02:19:38;1.20;99.90
13880;DHT22;7010;48.200;16.332;2023-02-28T02:22:37;1.20;99.90
13880;DHT22;7010;48.200;16.332;2023-02-28T02:25:19;1.20;99.90
13880;DHT22;7010;48.200;16.332;2023-02-28T02:28:34;1.20;99.90
13880;DHT22;7010;48.200;16.332;2023-02-28T02:34:27;1.10;99.90
13880;DHT22;7010;48.200;16.332;2023-02-28T02:37:11;1.10;99.90
13880;DHT22;7010;48.200;16.332;2023-02-28T02:39:47;1.10;99.90
13880;DHT22;7010;48.200;16.332;2023-02-28T02:42:23;1.00;99.90
13880;DHT22;7010;48.200;16.332;2023-02-28T02:44:57;1.00;99.90
13880;DHT22;7010;48.200;16.332;2023-02-28T02:47:30;1.00;99.90
13880;DHT22;7010;48.200;16.332;2023-02-28T02:50:04;0.90;99.90
13880;DHT22;7010;48.200;16.332;2023-02-28T02:52:36;0.90;99.90
13880;DHT22;7010;48.200;16.332;2023-02-28T02:55:08;1.00;99.90
13880;DHT22;7010;48.200;16.332;2023-02-28T02:57:42;0.90;99.90
13880;DHT22;7010;48.200;16.332;2023-02-28T03:00:16;0.90;99.90
13880;DHT22;7010;48.200;16.332;2023-02-28T03:02:47;0.90;99.90
13880;DHT22;7010;48.200;16.332;2023-02-28T03:05:21;0.90;99.90
13880;DHT22;7010;48.200;16.332;2023-02-28T03:07:51;0.90;99.90
13880;DHT22;7010;48.200;16.332;2023-02-28T03:10:36;0.90;99.90
13880;DHT22;7010;48.200;16.332;2023-02-28T03:16:36;0.90;99.90
13880;DHT22;7010;48.200;16.332;2023-02-28T03:19:38;0.90;99.90
13880;DHT22;7010;48.200;16.332;2023-02-28T03:22:27;0.80;99.90
13880;DHT22;7010;48.200;16.332;2023-02-28T03:25:05;0.80;99.90
13880;DHT22;7010;48.200;16.332;2023-02-28T03:27:38;0.80;99.90
13880;DHT22;7010;48.200;16.332;2023-02-28T03:30:13;0.80;99.90
13880;DHT22;7010;48.200;16.332;2023-02-28T03:32:48;0.80;99.90
13880;DHT22;7010;48.200;16.332;2023-02-28T03:35:22;0.70;99.90
13880;DHT22;7010;48.200;16.332;2023-02-28T03:37:55;0.70;99.90
13880;DHT22;7010;48.200;16.332;2023-02-28T03:40:30;0.70;99.90
13880;DHT22;7010;48.200;16.332;2023-02-28T03:43:02;0.70;99.90
13880;DHT22;7010;48.200;16.332;2023-02-28T03:45:36;0.70;99.90
13880;DHT22;7010;48.200;16.332;2023-02-28T03:48:10;0.70;99.90
13880;DHT22;7010;48.200;16.332;2023-02-28T03:50:43;0.70;99.90
13880;DHT22;7010;48.200;16.332;2023-02-28T03:53:16;0.70;99.90
13880;DHT22;7010;48.200;16.332;2023-02-28T03:55:50;0.60;99.90
13880;DHT22;7010;48.200;16.332;2023-02-28T03:58:27;0.60;99.90
13880;DHT22;7010;48.200;16.332;2023-02-28T04:01:01;0.60;99.90
13880;DHT22;7010;48.200;16.332;2023-02-28T04:03:37;0.60;99.90
13880;DHT22;7010;48.200;16.332;2023-02-28T04:06:07;0.60;99.90
13880;DHT22;7010;48.200;16.332;2023-02-28T04:08:38;0.60;99.90
13880;DHT22;7010;48.200;16.332;2023-02-28T04:11:16;0.60;99.90
13880;DHT22;7010;48.200;16.332;2023-02-28T04:13:46;0.70;99.90
13880;DHT22;7010;48.200;16.332;2023-02-28T04:16:15;0.70;99.90
13880;DHT22;7010;48.200;16.332;2023-02-28T04:19:00;0.70;99.90
13880;DHT22;7010;48.200;16.332;2023-02-28T04:21:30;0.70;99.90
13880;DHT22;7010;48.200;16.332;2023-02-28T04:24:01;0.70;99.90
13880;DHT22;7010;48.200;16.332;2023-02-28T04:26:30;0.80;99.90
13880;DHT22;7010;48.200;16.332;2023-02-28T04:28:59;0.80;99.90
13880;DHT22;7010;48.200;16.332;2023-02-28T04:31:27;0.80;99.90
13880;DHT22;7010;48.200;16.332;2023-02-28T04:33:56;0.80;99.90
13880;DHT22;7010;48.200;16.332;2023-02-28T04:36:25;0.80;99.90
13880;DHT22;7010;48.200;16.332;2023-02-28T04:38:54;0.80;99.90
13880;DHT22;7010;48.200;16.332;2023-02-28T04:41:24;0.80;99.90
13880;DHT22;7010;48.200;16.332;2023-02-28T04:43:54;0.80;99.90
13880;DHT22;7010;48.200;16.332;2023-02-28T04:46:25;0.80;99.90
13880;DHT22;7010;48.200;16.332;2023-02-28T04:48:53;0.80;99.90
13880;DHT22;7010;48.200;16.332;2023-02-28T04:51:22;0.80;99.90
13880;DHT22;7010;48.200;16.332;2023-02-28T04:53:50;0.80;99.90
13880;DHT22;7010;48.200;16.332;2023-02-28T04:56:19;0.80;99.90
13880;DHT22;7010;48.200;16.332;2023-02-28T04:58:49;0.80;99.90
13880;DHT22;7010;48.200;16.332;2023-02-28T05:01:22;0.80;99.90
13880;DHT22;7010;48.200;16.332;2023-02-28T05:03:52;0.80;99.90
13880;DHT22;7010;48.200;16.332;2023-02-28T05:06:22;0.90;99.90
13880;DHT22;7010;48.200;16.332;2023-02-28T05:08:51;0.80;99.90
13880;DHT22;7010;48.200;16.332;2023-02-28T05:11:21;0.90;99.90
13880;DHT22;7010;48.200;16.332;2023-02-28T05:13:53;0.80;99.90
13880;DHT22;7010;48.200;16.332;2023-02-28T05:16:21;0.80;99.90
13880;DHT22;7010;48.200;16.332;2023-02-28T05:18:50;0.80;99.90
13880;DHT22;7010;48.200;16.332;2023-02-28T05:21:28;0.80;99.90
13880;DHT22;7010;48.200;16.332;2023-02-28T05:23:58;0.80;99.90
13880;DHT22;7010;48.200;16.332;2023-02-28T05:26:27;0.80;99.90
13880;DHT22;7010;48.200;16.332;2023-02-28T05:29:00;0.70;99.90
13880;DHT22;7010;48.200;16.332;2023-02-28T05:31:28;0.70;99.90
13880;DHT22;7010;48.200;16.332;2023-02-28T05:33:57;0.60;99.90
13880;DHT22;7010;48.200;16.332;2023-02-28T05:36:25;0.60;99.90
13880;DHT22;7010;48.200;16.332;2023-02-28T05:38:53;0.60;99.90
13880;DHT22;7010;48.200;16.332;2023-02-28T05:41:22;0.60;99.90
13880;DHT22;7010;48.200;16.332;2023-02-28T05:43:50;0.50;99.90
13880;DHT22;7010;48.200;16.332;2023-02-28T05:46:20;0.50;99.90
13880;DHT22;7010;48.200;16.332;2023-02-28T05:48:49;0.50;99.90
13880;DHT22;7010;48.200;16.332;2023-02-28T05:51:18;0.50;99.90
13880;DHT22;7010;48.200;16.332;2023-02-28T05:53:46;0.50;99.90
13880;DHT22;7010;48.200;16.332;2023-02-28T05:56:16;0.50;99.90
13880;DHT22;7010;48.200;16.332;2023-02-28T05:58:44;0.60;99.90
13880;DHT22;7010;48.200;16.332;2023-02-28T06:01:30;0.60;99.90
13880;DHT22;7010;48.200;16.332;2023-02-28T06:03:59;0.60;99.90
13880;DHT22;7010;48.200;16.332;2023-02-28T06:06:28;0.70;99.90
13880;DHT22;7010;48.200;16.332;2023-02-28T06:08:57;0.70;99.90
13880;DHT22;7010;48.200;16.332;2023-02-28T06:11:25;0.70;99.90
13880;DHT22;7010;48.200;16.332;2023-02-28T06:13:55;0.70;99.90
13880;DHT22;7010;48.200;16.332;2023-02-28T06:16:26;0.70;99.90
13880;DHT22;7010;48.200;16.332;2023-02-28T06:18:56;0.70;99.90
13880;DHT22;7010;48.200;16.332;2023-02-28T06:21:25;0.70;99.90
13880;DHT22;7010;48.200;16.332;2023-02-28T06:23:55;0.80;99.90
13880;DHT22;7010;48.200;16.332;2023-02-28T06:26:24;0.80;99.90
13880;DHT22;7010;48.200;16.332;2023-02-28T06:28:53;0.80;99.90
13880;DHT22;7010;48.200;16.332;2023-02-28T06:31:21;0.80;99.90
13880;DHT22;7010;48.200;16.332;2023-02-28T06:33:52;0.80;99.90
13880;DHT22;7010;48.200;16.332;2023-02-28T06:36:21;0.80;99.90
13880;DHT22;7010;48.200;16.332;2023-02-28T06:38:49;0.80;99.90
13880;DHT22;7010;48.200;16.332;2023-02-28T06:41:22;0.90;99.90
13880;DHT22;7010;48.200;16.332;2023-02-28T06:43:51;0.90;99.90
13880;DHT22;7010;48.200;16.332;2023-02-28T06:46:19;0.90;99.90
13880;DHT22;7010;48.200;16.332;2023-02-28T06:48:48;0.90;99.90
13880;DHT22;7010;48.200;16.332;2023-02-28T06:51:19;0.90;99.90
13880;DHT22;7010;48.200;16.332;2023-02-28T06:53:49;0.90;99.90
13880;DHT22;7010;48.200;16.332;2023-02-28T06:56:18;0.90;99.90
13880;DHT22;7010;48.200;16.332;2023-02-28T06:58:49;1.00;99.90
13880;DHT22;7010;48.200;16.332;2023-02-28T07:01:19;1.10;99.90
13880;DHT22;7010;48.200;16.332;2023-02-28T07:03:50;1.10;99.90
13880;DHT22;7010;48.200;16.332;2023-02-28T07:06:20;1.10;99.90
13880;DHT22;7010;48.200;16.332;2023-02-28T07:08:50;1.20;99.90
13880;DHT22;7010;48.200;16.332;2023-02-28T07:11:19;1.20;99.90
13880;DHT22;7010;48.200;16.332;2023-02-28T07:13:49;1.20;99.90
13880;DHT22;7010;48.200;16.332;2023-02-28T07:16:18;1.30;99.90
13880;DHT22;7010;48.200;16.332;2023-02-28T07:18:46;1.40;99.90
13880;DHT22;7010;48.200;16.332;2023-02-28T07:21:15;1.50;99.90
13880;DHT22;7010;48.200;16.332;2023-02-28T07:23:45;1.60;99.90
13880;DHT22;7010;48.200;16.332;2023-02-28T07:26:16;1.70;99.90
13880;DHT22;7010;48.200;16.332;2023-02-28T07:28:46;1.80;99.90
13880;DHT22;7010;48.200;16.332;2023-02-28T07:31:16;1.80;99.90
13880;DHT22;7010;48.200;16.332;2023-02-28T07:33:45;1.90;99.90
13880;DHT22;7010;48.200;16.332;2023-02-28T07:36:15;2.00;99.90
13880;DHT22;7010;48.200;16.332;2023-02-28T07:38:47;2.00;99.90
13880;DHT22;7010;48.200;16.332;2023-02-28T07:41:18;2.10;99.90
13880;DHT22;7010;48.200;16.332;2023-02-28T07:43:47;2.20;99.90
13880;DHT22;7010;48.200;16.332;2023-02-28T07:46:16;2.20;99.90
13880;DHT22;7010;48.200;16.332;2023-02-28T07:48:47;2.30;99.90
13880;DHT22;7010;48.200;16.332;2023-02-28T07:51:15;2.30;99.90
13880;DHT22;7010;48.200;16.332;2023-02-28T07:53:49;2.30;99.90
13880;DHT22;7010;48.200;16.332;2023-02-28T07:56:17;2.30;99.90
13880;DHT22;7010;48.200;16.332;2023-02-28T07:58:45;2.50;99.90
13880;DHT22;7010;48.200;16.332;2023-02-28T08:01:14;2.60;99.90
13880;DHT22;7010;48.200;16.332;2023-02-28T08:03:42;2.70;99.90
13880;DHT22;7010;48.200;16.332;2023-02-28T08:06:16;2.70;99.90
13880;DHT22;7010;48.200;16.332;2023-02-28T08:08:46;2.80;99.90
13880;DHT22;7010;48.200;16.332;2023-02-28T08:11:14;2.80;99.90
13880;DHT22;7010;48.200;16.332;2023-02-28T08:13:43;2.90;99.90
13880;DHT22;7010;48.200;16.332;2023-02-28T08:16:12;3.00;99.90
13880;DHT22;7010;48.200;16.332;2023-02-28T08:18:44;3.10;99.90
13880;DHT22;7010;48.200;16.332;2023-02-28T08:21:13;3.20;99.90
13880;DHT22;7010;48.200;16.332;2023-02-28T08:23:42;3.20;99.90
13880;DHT22;7010;48.200;16.332;2023-02-28T08:26:12;3.20;99.90
13880;DHT22;7010;48.200;16.332;2023-02-28T08:28:40;3.30;99.90
13880;DHT22;7010;48.200;16.332;2023-02-28T08:31:21;3.40;99.90
13880;DHT22;7010;48.200;16.332;2023-02-28T08:33:50;3.70;99.90
13880;DHT22;7010;48.200;16.332;2023-02-28T08:36:19;3.60;99.90
13880;DHT22;7010;48.200;16.332;2023-02-28T08:38:48;3.60;99.90
13880;DHT22;7010;48.200;16.332;2023-02-28T08:41:18;3.70;99.90
13880;DHT22;7010;48.200;16.332;2023-02-28T08:43:46;3.70;99.90
13880;DHT22;7010;48.200;16.332;2023-02-28T08:46:14;4.00;99.90
13880;DHT22;7010;48.200;16.332;2023-02-28T08:48:42;4.20;99.90
13880;DHT22;7010;48.200;16.332;2023-02-28T08:51:12;4.40;99.90
13880;DHT22;7010;48.200;16.332;2023-02-28T08:53:43;4.60;99.90
13880;DHT22;7010;48.200;16.332;2023-02-28T08:56:13;4.70;99.90
13880;DHT22;7010;48.200;16.332;2023-02-28T08:58:43;4.90;99.90
13880;DHT22;7010;48.200;16.332;2023-02-28T09:01:13;4.90;99.90
13880;DHT22;7010;48.200;16.332;2023-02-28T09:03:43;5.00;99.90
13880;DHT22;7010;48.200;16.332;2023-02-28T09:06:13;5.00;99.90
13880;DHT22;7010;48.200;16.332;2023-02-28T09:08:42;5.20;99.90
13880;DHT22;7010;48.200;16.332;2023-02-28T09:11:11;5.40;99.90
13880;DHT22;7010;48.200;16.332;2023-02-28T09:13:41;5.60;99.90
13880;DHT22;7010;48.200;16.332;2023-02-28T09:16:12;5.90;99.90
13880;DHT22;7010;48.200;16.332;2023-02-28T09:18:41;6.00;99.90
13880;DHT22;7010;48.200;16.332;2023-02-28T09:21:11;6.00;99.90
13880;DHT22;7010;48.200;16.332;2023-02-28T09:23:41;5.90;99.90
13880;DHT22;7010;48.200;16.332;2023-02-28T09:26:13;6.00;99.90
13880;DHT22;7010;48.200;16.332;2023-02-28T09:28:43;6.30;99.90
13880;DHT22;7010;48.200;16.332;2023-02-28T09:31:13;6.50;99.90
13880;DHT22;7010;48.200;16.332;2023-02-28T09:33:42;6.70;99.90
13880;DHT22;7010;48.200;16.332;2023-02-28T09:36:10;7.00;99.90
13880;DHT22;7010;48.200;16.332;2023-02-28T09:38:39;7.10;99.90
13880;DHT22;7010;48.200;16.332;2023-02-28T09:41:12;7.20;99.90
13880;DHT22;7010;48.200;16.332;2023-02-28T09:43:46;7.40;99.90
13880;DHT22;7010;48.200;16.332;2023-02-28T09:46:31;7.70;99.90
13880;DHT22;7010;48.200;16.332;2023-02-28T09:49:04;7.70;99.90
13880;DHT22;7010;48.200;16.332;2023-02-28T09:51:39;7.40;99.90
13880;DHT22;7010;48.200;16.332;2023-02-28T09:54:13;7.40;99.90
13880;DHT22;7010;48.200;16.332;2023-02-28T09:56:48;7.60;99.90
13880;DHT22;7010;48.200;16.332;2023-02-28T09:59:31;7.80;99.90
13880;DHT22;7010;48.200;16.332;2023-02-28T10:02:13;8.00;99.90
13880;DHT22;7010;48.200;16.332;2023-02-28T10:04:49;8.20;99.90
13880;DHT22;7010;48.200;16.332;2023-02-28T10:07:35;8.20;99.90
13880;DHT22;7010;48.200;16.332;2023-02-28T10:12:44;7.70;99.90
13880;DHT22;7010;48.200;16.332;2023-02-28T10:15:15;7.60;99.90
13880;DHT22;7010;48.200;16.332;2023-02-28T10:17:47;7.30;99.90
13880;DHT22;7010;48.200;16.332;2023-02-28T10:20:27;7.10;99.90
13880;DHT22;7010;48.200;16.332;2023-02-28T10:23:00;7.10;99.90
13880;DHT22;7010;48.200;16.332;2023-02-28T10:25:36;7.20;99.90
13880;DHT22;7010;48.200;16.332;2023-02-28T10:28:10;7.40;99.90
13880;DHT22;7010;48.200;16.332;2023-02-28T10:30:46;7.50;99.90
13880;DHT22;7010;48.200;16.332;2023-02-28T10:33:21;7.60;99.90
13880;DHT22;7010;48.200;16.332;2023-02-28T10:35:51;7.90;99.90
13880;DHT22;7010;48.200;16.332;2023-02-28T10:38:22;8.20;99.90
13880;DHT22;7010;48.200;16.332;2023-02-28T10:40:51;8.40;99.90
13880;DHT22;7010;48.200;16.332;2023-02-28T10:43:23;8.70;99.90
13880;DHT22;7010;48.200;16.332;2023-02-28T10:45:59;8.80;99.90
13880;DHT22;7010;48.200;16.332;2023-02-28T10:48:39;9.20;99.90
13880;DHT22;7010;48.200;16.332;2023-02-28T10:51:11;9.40;99.90
13880;DHT22;7010;48.200;16.332;2023-02-28T10:53:47;9.80;99.90
13880;DHT22;7010;48.200;16.332;2023-02-28T10:56:27;9.80;99.90
13880;DHT22;7010;48.200;16.332;2023-02-28T10:58:59;9.70;99.20
13880;DHT22;7010;48.200;16.332;2023-02-28T11:01:38;9.90;99.70
13880;DHT22;7010;48.200;16.332;2023-02-28T11:04:18;10.30;98.90
13880;DHT22;7010;48.200;16.332;2023-02-28T11:06:56;10.70;98.10
13880;DHT22;7010;48.200;16.332;2023-02-28T11:09:29;11.60;99.90
13880;DHT22;7010;48.200;16.332;2023-02-28T11:11:59;12.10;98.40
13880;DHT22;7010;48.200;16.332;2023-02-28T11:14:31;12.30;97.90
13880;DHT22;7010;48.200;16.332;2023-02-28T11:17:14;12.20;97.70
13880;DHT22;7010;48.200;16.332;2023-02-28T11:19:48;11.60;96.10
13880;DHT22;7010;48.200;16.332;2023-02-28T11:22:20;11.70;99.90
13880;DHT22;7010;48.200;16.332;2023-02-28T11:24:51;12.10;99.90
13880;DHT22;7010;48.200;16.332;2023-02-28T11:27:26;12.30;98.80
13880;DHT22;7010;48.200;16.332;2023-02-28T11:29:54;12.40;99.50
13880;DHT22;7010;48.200;16.332;2023-02-28T11:32:25;12.60;99.90
13880;DHT22;7010;48.200;16.332;2023-02-28T11:35:03;12.70;97.80
13880;DHT22;7010;48.200;16.332;2023-02-28T11:37:32;12.70;96.60
13880;DHT22;7010;48.200;16.332;2023-02-28T11:40:02;12.50;96.70
13880;DHT22;7010;48.200;16.332;2023-02-28T11:42:51;12.40;98.40
13880;DHT22;7010;48.200;16.332;2023-02-28T11:45:32;12.60;97.10
13880;DHT22;7010;48.200;16.332;2023-02-28T11:48:14;12.80;99.50
13880;DHT22;7010;48.200;16.332;2023-02-28T11:51:05;12.70;94.60
13880;DHT22;7010;48.200;16.332;2023-02-28T11:56:35;12.00;95.30
13880;DHT22;7010;48.200;16.332;2023-02-28T11:59:20;11.70;96.00
13880;DHT22;7010;48.200;16.332;2023-02-28T12:04:55;12.20;95.90
13880;DHT22;7010;48.200;16.332;2023-02-28T12:07:33;12.60;97.20
13880;DHT22;7010;48.200;16.332;2023-02-28T12:10:12;12.70;94.00
13880;DHT22;7010;48.200;16.332;2023-02-28T12:12:48;12.50;94.60
13880;DHT22;7010;48.200;16.332;2023-02-28T12:18:27;11.90;94.90
13880;DHT22;7010;48.200;16.332;2023-02-28T12:21:07;11.80;95.60
13880;DHT22;7010;48.200;16.332;2023-02-28T12:24:01;11.50;94.90
13880;DHT22;7010;48.200;16.332;2023-02-28T12:26:36;11.60;95.00
13880;DHT22;7010;48.200;16.332;2023-02-28T12:29:11;11.60;92.90
13880;DHT22;7010;48.200;16.332;2023-02-28T12:31:46;11.40;94.40
13880;DHT22;7010;48.200;16.332;2023-02-28T12:34:20;11.40;95.70
13880;DHT22;7010;48.200;16.332;2023-02-28T12:36:56;11.60;95.20
13880;DHT22;7010;48.200;16.332;2023-02-28T12:39:29;11.50;92.70
13880;DHT22;7010;48.200;16.332;2023-02-28T12:42:19;11.10;93.40
13880;DHT22;7010;48.200;16.332;2023-02-28T12:44:54;10.60;94.90
13880;DHT22;7010;48.200;16.332;2023-02-28T12:47:25;10.20;94.20
13880;DHT22;7010;48.200;16.332;2023-02-28T12:49:56;9.90;96.00
13880;DHT22;7010;48.200;16.332;2023-02-28T12:52:35;10.10;96.70
13880;DHT22;7010;48.200;16.332;2023-02-28T12:55:06;10.20;94.30
13880;DHT22;7010;48.200;16.332;2023-02-28T12:57:40;10.10;94.20
13880;DHT22;7010;48.200;16.332;2023-02-28T13:00:13;9.70;95.20
13880;DHT22;7010;48.200;16.332;2023-02-28T13:02:59;9.70;96.10
13880;DHT22;7010;48.200;16.332;2023-02-28T13:05:50;10.20;94.30
13880;DHT22;7010;48.200;16.332;2023-02-28T13:09:01;10.20;94.90
13880;DHT22;7010;48.200;16.332;2023-02-28T13:11:33;10.10;96.20
13880;DHT22;7010;48.200;16.332;2023-02-28T13:14:03;9.90;96.90
13880;DHT22;7010;48.200;16.332;2023-02-28T13:16:56;9.90;95.70
13880;DHT22;7010;48.200;16.332;2023-02-28T13:19:27;10.10;96.10
13880;DHT22;7010;48.200;16.332;2023-02-28T13:21:56;9.90;95.60
13880;DHT22;7010;48.200;16.332;2023-02-28T13:24:45;9.60;94.20
13880;DHT22;7010;48.200;16.332;2023-02-28T13:27:33;9.60;95.10
13880;DHT22;7010;48.200;16.332;2023-02-28T13:31:00;9.50;94.80
13880;DHT22;7010;48.200;16.332;2023-02-28T13:33:29;10.00;93.40
13880;DHT22;7010;48.200;16.332;2023-02-28T13:36:08;10.10;93.80
13880;DHT22;7010;48.200;16.332;2023-02-28T13:38:40;9.80;92.50
13880;DHT22;7010;48.200;16.332;2023-02-28T13:41:45;9.50;93.50
13880;DHT22;7010;48.200;16.332;2023-02-28T13:44:15;9.10;95.30
13880;DHT22;7010;48.200;16.332;2023-02-28T13:49:52;9.00;95.00
13880;DHT22;7010;48.200;16.332;2023-02-28T13:52:22;9.20;95.30
13880;DHT22;7010;48.200;16.332;2023-02-28T13:55:19;9.50;94.10
13880;DHT22;7010;48.200;16.332;2023-02-28T13:58:03;9.50;96.40
13880;DHT22;7010;48.200;16.332;2023-02-28T14:00:49;9.60;95.30
13880;DHT22;7010;48.200;16.332;2023-02-28T14:03:39;9.80;94.90
13880;DHT22;7010;48.200;16.332;2023-02-28T14:06:18;9.80;95.60
13880;DHT22;7010;48.200;16.332;2023-02-28T14:08:54;9.90;94.40
13880;DHT22;7010;48.200;16.332;2023-02-28T14:11:29;9.90;93.30
13880;DHT22;7010;48.200;16.332;2023-02-28T14:13:59;9.70;92.20
13880;DHT22;7010;48.200;16.332;2023-02-28T14:16:37;9.60;93.60
13880;DHT22;7010;48.200;16.332;2023-02-28T14:19:12;9.50;92.00
13880;DHT22;7010;48.200;16.332;2023-02-28T14:21:51;9.40;93.50
13880;DHT22;7010;48.200;16.332;2023-02-28T14:24:49;9.30;93.30
13880;DHT22;7010;48.200;16.332;2023-02-28T14:27:27;9.20;92.20
13880;DHT22;7010;48.200;16.332;2023-02-28T14:33:27;8.70;93.70
13880;DHT22;7010;48.200;16.332;2023-02-28T14:36:10;8.60;94.30
13880;DHT22;7010;48.200;16.332;2023-02-28T14:38:43;8.50;94.20
13880;DHT22;7010;48.200;16.332;2023-02-28T14:41:17;8.40;95.30
13880;DHT22;7010;48.200;16.332;2023-02-28T14:43:52;8.30;94.70
13880;DHT22;7010;48.200;16.332;2023-02-28T14:46:23;8.20;95.30
13880;DHT22;7010;48.200;16.332;2023-02-28T14:48:54;8.10;95.30
13880;DHT22;7010;48.200;16.332;2023-02-28T14:51:23;8.10;95.20
13880;DHT22;7010;48.200;16.332;2023-02-28T14:53:56;8.00;94.80
13880;DHT22;7010;48.200;16.332;2023-02-28T14:56:27;7.90;95.60
13880;DHT22;7010;48.200;16.332;2023-02-28T14:58:58;7.90;95.50
13880;DHT22;7010;48.200;16.332;2023-02-28T15:01:26;7.70;94.60
13880;DHT22;7010;48.200;16.332;2023-02-28T15:04:01;7.60;94.30
13880;DHT22;7010;48.200;16.332;2023-02-28T15:06:31;7.50;94.00
13880;DHT22;7010;48.200;16.332;2023-02-28T15:09:08;7.40;93.90
13880;DHT22;7010;48.200;16.332;2023-02-28T15:11:38;7.40;94.10
13880;DHT22;7010;48.200;16.332;2023-02-28T15:14:12;7.30;94.60
13880;DHT22;7010;48.200;16.332;2023-02-28T15:16:43;7.30;94.90
13880;DHT22;7010;48.200;16.332;2023-02-28T15:19:19;7.40;95.10
13880;DHT22;7010;48.200;16.332;2023-02-28T15:21:50;7.40;94.50
13880;DHT22;7010;48.200;16.332;2023-02-28T15:24:30;7.40;94.70
13880;DHT22;7010;48.200;16.332;2023-02-28T15:27:02;7.30;95.00
13880;DHT22;7010;48.200;16.332;2023-02-28T15:29:37;7.30;95.50
13880;DHT22;7010;48.200;16.332;2023-02-28T15:32:27;7.30;96.30
13880;DHT22;7010;48.200;16.332;2023-02-28T15:34:58;7.40;96.50
13880;DHT22;7010;48.200;16.332;2023-02-28T15:37:30;7.30;96.50
13880;DHT22;7010;48.200;16.332;2023-02-28T15:40:07;7.30;96.70
13880;DHT22;7010;48.200;16.332;2023-02-28T15:42:35;7.30;96.80
13880;DHT22;7010;48.200;16.332;2023-02-28T15:45:04;7.20;96.30
13880;DHT22;7010;48.200;16.332;2023-02-28T15:47:33;7.10;96.40
13880;DHT22;7010;48.200;16.332;2023-02-28T15:50:09;7.00;96.80
13880;DHT22;7010;48.200;16.332;2023-02-28T15:52:42;6.90;96.50
13880;DHT22;7010;48.200;16.332;2023-02-28T15:55:16;6.90;96.40
13880;DHT22;7010;48.200;16.332;2023-02-28T15:57:46;6.80;97.20
13880;DHT22;7010;48.200;16.332;2023-02-28T16:00:19;6.70;97.10
13880;DHT22;7010;48.200;16.332;2023-02-28T16:02:50;6.70;97.40
13880;DHT22;7010;48.200;16.332;2023-02-28T16:05:23;6.60;96.90
13880;DHT22;7010;48.200;16.332;2023-02-28T16:07:58;6.60;97.40
13880;DHT22;7010;48.200;16.332;2023-02-28T16:10:29;6.50;97.40
13880;DHT22;7010;48.200;16.332;2023-02-28T16:12:58;6.50;96.70
13880;DHT22;7010;48.200;16.332;2023-02-28T16:15:28;6.40;97.00
13880;DHT22;7010;48.200;16.332;2023-02-28T16:17:57;6.30;97.00
13880;DHT22;7010;48.200;16.332;2023-02-28T16:20:28;6.30;97.80
13880;DHT22;7010;48.200;16.332;2023-02-28T16:22:57;6.30;97.30
13880;DHT22;7010;48.200;16.332;2023-02-28T16:25:33;6.20;98.30
13880;DHT22;7010;48.200;16.332;2023-02-28T16:28:02;6.10;98.40
13880;DHT22;7010;48.200;16.332;2023-02-28T16:30:30;6.10;97.90
13880;DHT22;7010;48.200;16.332;2023-02-28T16:32:59;6.00;97.90
13880;DHT22;7010;48.200;16.332;2023-02-28T16:35:29;5.90;98.20
13880;DHT22;7010;48.200;16.332;2023-02-28T16:37:57;5.90;98.30
13880;DHT22;7010;48.200;16.332;2023-02-28T16:40:26;5.80;98.40
13880;DHT22;7010;48.200;16.332;2023-02-28T16:42:58;5.70;98.60
13880;DHT22;7010;48.200;16.332;2023-02-28T16:45:28;5.70;98.50
13880;DHT22;7010;48.200;16.332;2023-02-28T16:47:56;5.60;98.60